Time;durP1;ratioP1;P1;durP2;ratioP2;P2;SDS_P1;SDS_P2;PMS_P1;PMS_P2;Temp;Humidity;BMP_temperature;BMP_pressure;BME280_temperature;BME280_humidity;BME280_pressure;Samples;Min_cycle;Max_cycle;Signal;HPM_P1;HPM_P2
2021/06/11 00:02:00;;;;;;;9.70;9.00;;;18.70;99.90;;;;;;5026831;28;20414;-69
2021/06/11 00:04:25;;;;;;;10.60;9.70;;;18.70;99.90;;;;;;5025622;28;20551;-69
2021/06/11 00:06:51;;;;;;;9.90;9.10;;;18.60;99.90;;;;;;5033610;28;20183;-69
2021/06/11 00:09:17;;;;;;;12.00;11.10;;;18.60;99.90;;;;;;5027033;28;20211;-69
2021/06/11 00:11:44;;;;;;;10.93;9.93;;;18.60;99.90;;;;;;5025593;28;20194;-68
2021/06/11 00:14:10;;;;;;;11.23;10.33;;;18.50;99.90;;;;;;5033529;28;20484;-68
2021/06/11 00:16:36;;;;;;;10.67;9.80;;;18.60;99.90;;;;;;5020258;28;20641;-68
2021/06/11 00:19:01;;;;;;;11.10;10.20;;;18.60;99.90;;;;;;5022677;28;20429;-68
2021/06/11 00:21:27;;;;;;;10.83;10.03;;;18.50;99.90;;;;;;5024958;28;20175;-69
2021/06/11 00:23:53;;;;;;;10.80;10.00;;;18.50;99.90;;;;;;5022593;28;20233;-68
2021/06/11 00:26:19;;;;;;;12.67;11.40;;;18.40;99.90;;;;;;5025272;28;20178;-69
2021/06/11 00:28:45;;;;;;;11.80;10.90;;;18.40;99.90;;;;;;5020749;28;20483;-70
2021/06/11 00:31:10;;;;;;;10.57;9.77;;;18.40;99.90;;;;;;5024269;28;20193;-69
2021/06/11 00:33:36;;;;;;;11.40;10.50;;;18.40;99.90;;;;;;5020869;28;20209;-69
2021/06/11 00:36:01;;;;;;;11.40;10.57;;;18.40;99.90;;;;;;5023451;28;20243;-68
2021/06/11 00:38:27;;;;;;;11.33;10.43;;;18.30;99.90;;;;;;5025939;28;20175;-67
2021/06/11 00:40:52;;;;;;;13.07;11.97;;;18.30;99.90;;;;;;5022566;28;20199;-68
2021/06/11 00:43:18;;;;;;;11.90;10.80;;;18.20;99.90;;;;;;5039912;28;20218;-68
2021/06/11 00:45:45;;;;;;;11.10;10.30;;;18.20;99.90;;;;;;5015590;28;20192;-69
2021/06/11 00:48:12;;;;;;;11.73;10.73;;;18.20;99.90;;;;;;5024579;28;20598;-69
2021/06/11 00:50:38;;;;;;;13.00;10.73;;;18.20;99.90;;;;;;5019436;28;20437;-69
2021/06/11 00:53:10;;;;;;;12.20;11.30;;;18.10;99.90;;;;;;5027154;28;20445;-68
2021/06/11 00:55:37;;;;;;;10.83;9.87;;;18.20;99.90;;;;;;5022478;28;20824;-68
2021/06/11 00:58:03;;;;;;;12.13;11.13;;;18.10;99.90;;;;;;5023335;28;20418;-68
2021/06/11 01:00:29;;;;;;;11.90;10.80;;;18.10;99.90;;;;;;5018248;28;20438;-68
2021/06/11 01:02:55;;;;;;;12.03;11.10;;;18.10;99.90;;;;;;5025937;28;20414;-69
2021/06/11 01:05:20;;;;;;;12.77;11.77;;;18.10;99.90;;;;;;5017675;28;20495;-69
2021/06/11 01:07:50;;;;;;;11.87;10.90;;;18.10;99.90;;;;;;5025076;28;20179;-68
2021/06/11 01:10:17;;;;;;;12.33;11.40;;;18.10;99.90;;;;;;5023709;28;20705;-69
2021/06/11 01:12:43;;;;;;;11.10;10.30;;;18.00;99.90;;;;;;5022335;28;20466;-68
2021/06/11 01:15:11;;;;;;;11.70;10.77;;;18.00;99.90;;;;;;5024551;28;20425;-68
2021/06/11 01:17:37;;;;;;;13.03;11.93;;;17.90;99.90;;;;;;5019245;28;20466;-68
2021/06/11 01:20:10;;;;;;;12.70;11.67;;;17.90;99.90;;;;;;5023776;28;20481;-68
2021/06/11 01:23:03;;;;;;;12.57;11.67;;;17.90;99.90;;;;;;5022095;28;20422;-69
2021/06/11 01:25:47;;;;;;;12.70;11.80;;;17.80;99.90;;;;;;5017378;28;20430;-68
2021/06/11 01:28:14;;;;;;;12.27;11.27;;;17.80;99.90;;;;;;5020062;28;20965;-69
2021/06/11 01:30:40;;;;;;;12.80;11.80;;;17.80;99.90;;;;;;5023830;28;20803;-68
2021/06/11 01:33:07;;;;;;;12.43;11.53;;;17.70;99.90;;;;;;5022558;28;20728;-68
2021/06/11 01:35:42;;;;;;;12.70;11.53;;;17.70;99.90;;;;;;5024474;28;20453;-68
2021/06/11 01:38:13;;;;;;;12.70;11.60;;;17.70;99.90;;;;;;5024363;28;20560;-69
2021/06/11 01:40:42;;;;;;;11.97;10.97;;;17.60;99.90;;;;;;5023885;28;20476;-68
2021/06/11 01:43:08;;;;;;;11.67;10.87;;;17.70;99.90;;;;;;5026530;28;20437;-66
2021/06/11 01:45:34;;;;;;;12.03;11.17;;;17.60;99.90;;;;;;5022523;28;20433;-68
2021/06/11 01:48:00;;;;;;;13.40;12.40;;;17.60;99.90;;;;;;5027092;28;20249;-69
2021/06/11 01:50:30;;;;;;;13.00;12.00;;;17.60;99.90;;;;;;5020622;28;20643;-69
2021/06/11 01:52:58;;;;;;;12.47;11.57;;;17.60;99.90;;;;;;5027977;28;20471;-69
2021/06/11 01:55:24;;;;;;;13.33;12.33;;;17.60;99.90;;;;;;5020511;28;20450;-68
2021/06/11 01:57:50;;;;;;;13.77;12.77;;;17.50;99.90;;;;;;5029289;28;20476;-69
2021/06/11 02:00:17;;;;;;;11.87;10.90;;;17.50;99.90;;;;;;5027628;28;20579;-68
2021/06/11 02:02:44;;;;;;;13.40;12.37;;;17.50;99.90;;;;;;5028753;28;20460;-68
2021/06/11 02:05:10;;;;;;;13.10;12.00;;;17.50;99.90;;;;;;5027127;28;20922;-68
2021/06/11 02:07:36;;;;;;;12.90;11.80;;;17.50;99.90;;;;;;5025422;28;20425;-68
2021/06/11 02:10:07;;;;;;;13.93;12.83;;;17.40;99.90;;;;;;5028318;28;20452;-68
2021/06/11 02:12:33;;;;;;;13.40;12.30;;;17.50;99.90;;;;;;5023451;28;20556;-68
2021/06/11 02:15:00;;;;;;;13.30;12.00;;;17.40;99.90;;;;;;5028664;28;20516;-68
2021/06/11 02:17:27;;;;;;;12.70;11.60;;;17.40;99.90;;;;;;5020604;28;20200;-68
2021/06/11 02:19:53;;;;;;;12.60;11.67;;;17.40;99.90;;;;;;5026433;28;20845;-66
2021/06/11 02:22:19;;;;;;;13.40;12.20;;;17.30;99.90;;;;;;5025023;28;20840;-67
2021/06/11 02:24:45;;;;;;;13.33;12.33;;;17.20;99.90;;;;;;5026275;28;20426;-67
2021/06/11 02:27:11;;;;;;;13.80;12.80;;;17.20;99.90;;;;;;5026627;28;20187;-68
2021/06/11 02:29:38;;;;;;;13.90;12.80;;;17.20;99.90;;;;;;5022864;28;20205;-67
2021/06/11 02:32:04;;;;;;;14.43;13.23;;;17.20;99.90;;;;;;5028564;28;20938;-68
2021/06/11 02:34:31;;;;;;;14.30;13.20;;;17.20;99.90;;;;;;5020736;28;20927;-68
2021/06/11 02:36:57;;;;;;;14.87;13.77;;;17.20;99.90;;;;;;5027529;28;20564;-68
2021/06/11 02:39:23;;;;;;;13.60;12.30;;;17.10;99.90;;;;;;5023318;28;20857;-68
2021/06/11 02:41:53;;;;;;;13.27;12.30;;;17.10;99.90;;;;;;5026405;28;20426;-68
2021/06/11 02:44:21;;;;;;;13.93;12.80;;;17.00;99.90;;;;;;5025941;28;20203;-68
2021/06/11 02:47:04;;;;;;;13.80;12.70;;;16.90;99.90;;;;;;5038781;28;20468;-67
2021/06/11 02:49:34;;;;;;;13.80;12.60;;;16.90;99.90;;;;;;5016584;28;20772;-68
2021/06/11 02:52:04;;;;;;;14.80;13.60;;;16.90;99.90;;;;;;5027200;28;20441;-68
2021/06/11 02:54:35;;;;;;;13.93;12.77;;;16.80;99.90;;;;;;5020543;28;20441;-68
2021/06/11 02:57:03;;;;;;;13.30;12.20;;;16.90;99.90;;;;;;5025843;28;20465;-67
2021/06/11 02:59:35;;;;;;;13.40;12.40;;;16.80;99.90;;;;;;5025821;28;20824;-68
2021/06/11 03:02:14;;;;;;;15.00;13.60;;;16.80;99.90;;;;;;5027827;28;20476;-67
2021/06/11 03:04:46;;;;;;;13.77;12.57;;;16.80;99.90;;;;;;5021805;28;20516;-67
2021/06/11 03:07:21;;;;;;;14.20;12.90;;;16.70;99.90;;;;;;5023085;28;20413;-67
2021/06/11 03:09:48;;;;;;;14.47;13.33;;;16.70;99.90;;;;;;5026058;28;20464;-67
2021/06/11 03:12:15;;;;;;;14.87;13.67;;;16.70;99.90;;;;;;5026136;28;20436;-68
2021/06/11 03:14:43;;;;;;;14.80;13.60;;;16.60;99.90;;;;;;5021869;28;20440;-66
2021/06/11 03:17:11;;;;;;;15.43;14.23;;;16.60;99.90;;;;;;5021607;28;20535;-81
2021/06/11 03:19:41;;;;;;;15.60;14.40;;;16.60;99.90;;;;;;5026103;28;20458;-79
2021/06/11 03:22:13;;;;;;;16.50;15.07;;;16.60;99.90;;;;;;5023833;28;20426;-79
2021/06/11 03:25:02;;;;;;;15.67;14.37;;;16.60;99.90;;;;;;5030500;28;20433;-80
2021/06/11 03:27:52;;;;;;;14.13;12.97;;;16.60;99.90;;;;;;5013513;28;20434;-80
2021/06/11 03:30:21;;;;;;;13.90;12.73;;;16.50;99.90;;;;;;5021862;28;20454;-80
2021/06/11 03:32:51;;;;;;;14.60;13.50;;;16.50;99.90;;;;;;5032287;28;20454;-79
2021/06/11 03:35:21;;;;;;;14.37;13.17;;;16.50;99.90;;;;;;5039833;28;20414;-79
2021/06/11 03:37:51;;;;;;;15.40;14.20;;;16.40;99.90;;;;;;5041556;28;20523;-79
2021/06/11 03:40:24;;;;;;;14.37;13.27;;;16.40;99.90;;;;;;5044133;28;20982;-79
2021/06/11 03:42:51;;;;;;;14.67;13.53;;;16.30;99.90;;;;;;5042210;28;20447;-79
2021/06/11 03:45:18;;;;;;;15.23;14.03;;;16.30;99.90;;;;;;5027366;28;20422;-79
2021/06/11 03:47:45;;;;;;;14.70;13.60;;;16.30;99.90;;;;;;5026759;28;20849;-79
2021/06/11 03:50:12;;;;;;;15.00;13.80;;;16.30;99.90;;;;;;5023036;28;20454;-79
2021/06/11 03:52:40;;;;;;;13.70;12.60;;;16.30;99.90;;;;;;5027105;28;20433;-79
2021/06/11 03:55:16;;;;;;;14.77;13.67;;;16.30;99.90;;;;;;5022128;28;20434;-79
2021/06/11 03:57:46;;;;;;;16.17;14.87;;;16.30;99.90;;;;;;5022015;28;20499;-79
2021/06/11 04:00:12;;;;;;;16.23;14.93;;;16.30;99.90;;;;;;5022285;28;20811;-79
2021/06/11 04:02:39;;;;;;;17.07;15.57;;;16.30;99.90;;;;;;5026536;28;20938;-79
2021/06/11 04:05:05;;;;;;;16.30;14.90;;;16.40;99.90;;;;;;5027697;28;20750;-79
2021/06/11 04:07:40;;;;;;;15.57;14.27;;;16.30;99.90;;;;;;5027650;28;20873;-79
2021/06/11 04:10:19;;;;;;;16.13;14.83;;;16.30;99.90;;;;;;5027524;28;20453;-79
2021/06/11 04:12:56;;;;;;;16.53;15.23;;;16.40;99.90;;;;;;5025650;28;20444;-79
2021/06/11 04:15:25;;;;;;;16.67;15.27;;;16.40;99.90;;;;;;5020786;28;20450;-79
2021/06/11 04:17:55;;;;;;;15.17;13.80;;;16.40;99.90;;;;;;5041757;28;20485;-79
2021/06/11 04:20:25;;;;;;;16.57;15.10;;;16.50;99.90;;;;;;5081615;22;20502;-77
2021/06/11 04:22:53;;;;;;;16.70;15.40;;;16.50;99.90;;;;;;5086201;28;20411;-76
2021/06/11 04:25:19;;;;;;;15.90;14.63;;;16.60;99.90;;;;;;5085991;28;20830;-76
2021/06/11 04:27:49;;;;;;;17.87;16.27;;;16.60;99.90;;;;;;5082059;28;20443;-77
2021/06/11 04:30:15;;;;;;;18.60;16.90;;;16.70;99.90;;;;;;5082157;28;20969;-77
2021/06/11 04:32:44;;;;;;;18.50;16.77;;;16.70;99.90;;;;;;5061976;28;20421;-76
2021/06/11 04:35:10;;;;;;;18.50;16.90;;;16.90;99.90;;;;;;5074040;28;20435;-75
2021/06/11 04:37:37;;;;;;;19.13;17.43;;;16.90;99.90;;;;;;5066700;28;20805;-76
2021/06/11 04:40:07;;;;;;;21.60;19.70;;;16.90;99.90;;;;;;5054343;28;20445;-77
2021/06/11 04:42:35;;;;;;;19.67;18.00;;;17.00;99.90;;;;;;5070937;28;20539;-76
2021/06/11 04:45:01;;;;;;;19.40;17.70;;;17.00;99.90;;;;;;5061572;28;20432;-76
2021/06/11 04:47:27;;;;;;;20.10;18.20;;;17.00;99.90;;;;;;5070702;28;20495;-77
2021/06/11 04:49:54;;;;;;;20.20;18.20;;;17.10;99.90;;;;;;5062163;28;20440;-76
2021/06/11 04:52:20;;;;;;;19.80;18.00;;;17.10;99.90;;;;;;5075595;28;20419;-76
2021/06/11 04:54:45;;;;;;;19.60;17.80;;;17.20;99.90;;;;;;5065643;28;20813;-77
2021/06/11 04:57:11;;;;;;;19.67;18.00;;;17.30;99.90;;;;;;5071525;28;20460;-76
2021/06/11 04:59:37;;;;;;;20.50;18.83;;;17.20;99.90;;;;;;5063833;28;20236;-79
2021/06/11 05:02:02;;;;;;;21.03;19.23;;;17.20;99.90;;;;;;5071156;28;20190;-79
2021/06/11 05:04:28;;;;;;;20.70;18.90;;;17.30;99.90;;;;;;5074776;28;20181;-76
2021/06/11 05:06:54;;;;;;;20.27;18.40;;;17.30;99.90;;;;;;5063492;28;20185;-79
2021/06/11 05:09:20;;;;;;;19.50;17.80;;;17.30;99.90;;;;;;5071430;28;20884;-77
2021/06/11 05:11:47;;;;;;;20.30;18.60;;;17.40;99.90;;;;;;5065277;28;20182;-77
2021/06/11 05:14:12;;;;;;;21.13;19.33;;;17.40;99.90;;;;;;5069125;28;20444;-79
2021/06/11 05:16:38;;;;;;;21.27;19.47;;;17.40;99.90;;;;;;5067225;28;20456;-76
2021/06/11 05:19:04;;;;;;;19.33;17.47;;;17.50;99.90;;;;;;5074769;28;20185;-77
2021/06/11 05:21:30;;;;;;;19.03;17.43;;;17.50;99.90;;;;;;5062350;28;20584;-76
2021/06/11 05:23:56;;;;;;;19.67;17.87;;;17.60;99.90;;;;;;5058798;28;20869;-79
2021/06/11 05:26:21;;;;;;;19.93;18.17;;;17.70;99.90;;;;;;5086740;28;20644;-76
2021/06/11 05:28:47;;;;;;;19.17;17.57;;;17.80;99.90;;;;;;5079464;28;20200;-77
2021/06/11 05:31:13;;;;;;;19.93;18.03;;;17.90;99.90;;;;;;5072369;28;20209;-77
2021/06/11 05:33:38;;;;;;;17.20;15.53;;;18.00;99.90;;;;;;5066408;28;20193;-76
2021/06/11 05:36:04;;;;;;;18.10;16.60;;;18.10;99.90;;;;;;5072503;28;20258;-75
2021/06/11 05:38:30;;;;;;;18.10;16.50;;;18.20;99.90;;;;;;5066357;28;20626;-77
2021/06/11 05:40:58;;;;;;;17.27;15.87;;;18.30;99.90;;;;;;5080330;28;20489;-76
2021/06/11 05:43:24;;;;;;;17.27;15.67;;;18.50;99.90;;;;;;5070355;28;20182;-77
2021/06/11 05:45:50;;;;;;;16.50;15.10;;;18.60;99.90;;;;;;5066919;28;20409;-76
2021/06/11 05:48:15;;;;;;;16.43;15.03;;;18.70;99.90;;;;;;5072726;28;20416;-77
2021/06/11 05:50:41;;;;;;;17.47;15.97;;;18.80;99.90;;;;;;5079189;28;20627;-77
2021/06/11 05:53:09;;;;;;;16.07;14.60;;;18.90;99.90;;;;;;5062478;28;20174;-78
2021/06/11 05:55:35;;;;;;;16.83;15.30;;;19.00;99.90;;;;;;5063480;28;20452;-77
2021/06/11 05:58:01;;;;;;;17.20;15.80;;;19.20;99.90;;;;;;5072440;28;20577;-77
2021/06/11 06:00:26;;;;;;;15.33;14.23;;;19.30;99.90;;;;;;5062133;28;20551;-77
2021/06/11 06:02:52;;;;;;;18.30;16.77;;;19.40;99.90;;;;;;5062643;28;20178;-75
2021/06/11 06:05:18;;;;;;;18.03;16.43;;;19.50;99.90;;;;;;5067496;28;20264;-78
2021/06/11 06:07:44;;;;;;;17.13;15.57;;;19.60;99.90;;;;;;5067321;28;20238;-76
2021/06/11 06:10:10;;;;;;;15.97;14.57;;;19.60;99.90;;;;;;5069204;28;20217;-77
2021/06/11 06:12:36;;;;;;;15.60;14.30;;;19.70;99.90;;;;;;5070287;28;20421;-75
2021/06/11 06:15:04;;;;;;;16.67;15.40;;;19.70;99.90;;;;;;5072300;28;20445;-77
2021/06/11 06:17:34;;;;;;;16.30;14.93;;;19.80;99.90;;;;;;5064406;28;20210;-77
2021/06/11 06:20:02;;;;;;;16.70;15.13;;;19.90;99.90;;;;;;5055056;28;20461;-78
2021/06/11 06:22:27;;;;;;;17.37;15.57;;;19.90;99.90;;;;;;5066778;28;20431;-77
2021/06/11 06:24:53;;;;;;;16.93;15.37;;;20.00;99.90;;;;;;5080232;28;20430;-78
2021/06/11 06:27:18;;;;;;;16.03;14.70;;;19.90;99.90;;;;;;5065328;28;20178;-77
2021/06/11 06:29:44;;;;;;;17.00;15.60;;;19.90;99.90;;;;;;5054833;28;20230;-77
2021/06/11 06:32:09;;;;;;;14.47;13.37;;;20.00;99.90;;;;;;5065338;28;20193;-78
2021/06/11 06:34:35;;;;;;;14.50;13.30;;;20.20;99.90;;;;;;5074932;28;20239;-78
2021/06/11 06:37:01;;;;;;;15.07;13.80;;;20.30;99.90;;;;;;5071501;28;20288;-77
2021/06/11 06:39:27;;;;;;;16.67;15.27;;;20.50;99.90;;;;;;5061698;28;20265;-77
2021/06/11 06:41:53;;;;;;;16.00;14.60;;;20.70;99.90;;;;;;5074059;28;20178;-78
2021/06/11 06:44:18;;;;;;;14.53;13.23;;;20.60;99.90;;;;;;5060272;28;20428;-76
2021/06/11 06:46:44;;;;;;;14.47;13.47;;;20.70;99.90;;;;;;5064337;28;20269;-78
2021/06/11 06:49:09;;;;;;;15.93;14.57;;;20.80;99.90;;;;;;5064271;28;20208;-78
2021/06/11 06:51:36;;;;;;;15.90;14.53;;;20.90;99.90;;;;;;5074836;28;20210;-78
2021/06/11 06:54:03;;;;;;;14.80;13.40;;;21.00;99.90;;;;;;5071494;28;20181;-77
2021/06/11 06:56:29;;;;;;;14.40;13.20;;;21.10;99.90;;;;;;5085047;28;20604;-77
2021/06/11 06:58:56;;;;;;;15.33;13.97;;;21.10;99.90;;;;;;5074894;28;20417;-80
2021/06/11 07:01:25;;;;;;;15.90;14.60;;;21.10;99.90;;;;;;5079507;28;20435;-80
2021/06/11 07:03:57;;;;;;;14.00;12.90;;;21.20;99.90;;;;;;5087570;28;20463;-77
2021/06/11 07:06:26;;;;;;;15.33;14.03;;;21.30;99.90;;;;;;5061778;28;20433;-78
2021/06/11 07:08:52;;;;;;;14.40;13.20;;;21.40;99.90;;;;;;5071596;28;20463;-77
2021/06/11 07:11:18;;;;;;;14.50;13.30;;;21.50;99.90;;;;;;5059958;28;20479;-77
2021/06/11 07:13:44;;;;;;;13.33;12.33;;;21.60;99.90;;;;;;5074413;28;20272;-78
2021/06/11 07:16:10;;;;;;;14.90;13.83;;;21.50;99.90;;;;;;5083188;28;20318;-80
2021/06/11 07:18:37;;;;;;;16.47;15.00;;;21.50;99.90;;;;;;5079032;28;20413;-77
2021/06/11 07:21:04;;;;;;;15.93;14.63;;;21.70;99.90;;;;;;5066739;28;20209;-77
2021/06/11 07:23:32;;;;;;;14.60;13.33;;;21.60;99.90;;;;;;5061187;28;20412;-77
2021/06/11 07:25:58;;;;;;;14.77;13.57;;;21.70;99.90;;;;;;5058085;28;20419;-77
2021/06/11 07:28:26;;;;;;;14.23;13.17;;;21.80;99.90;;;;;;5052182;28;20421;-74
2021/06/11 07:30:52;;;;;;;14.93;13.63;;;21.70;99.90;;;;;;5068387;28;20450;-77
2021/06/11 07:33:18;;;;;;;14.33;13.23;;;21.90;99.90;;;;;;5075018;28;20471;-77
2021/06/11 07:35:43;;;;;;;14.10;12.90;;;21.90;99.90;;;;;;5072255;28;20939;-77
2021/06/11 07:38:09;;;;;;;15.20;14.00;;;22.00;99.90;;;;;;5076416;28;20306;-77
2021/06/11 07:40:34;;;;;;;14.13;13.07;;;22.20;99.90;;;;;;5066478;28;20237;-77
2021/06/11 07:43:02;;;;;;;15.27;13.67;;;22.30;99.90;;;;;;5068997;28;20182;-77
2021/06/11 07:45:28;;;;;;;14.53;13.43;;;22.30;99.90;;;;;;5055759;28;20564;-76
2021/06/11 07:47:54;;;;;;;14.50;13.43;;;22.40;99.90;;;;;;5062102;28;20962;-77
2021/06/11 07:50:20;;;;;;;15.37;14.07;;;22.40;99.90;;;;;;5067569;28;20447;-76
2021/06/11 07:52:47;;;;;;;15.60;14.30;;;22.40;99.90;;;;;;5076546;28;20843;-77
2021/06/11 07:55:13;;;;;;;14.60;13.40;;;22.40;99.90;;;;;;5067436;28;20198;-77
2021/06/11 07:57:39;;;;;;;14.83;13.43;;;22.50;99.90;;;;;;5069655;28;20472;-77
2021/06/11 08:00:06;;;;;;;14.43;13.23;;;22.70;99.90;;;;;;5067015;28;20452;-77
2021/06/11 08:02:31;;;;;;;15.13;13.93;;;22.70;99.90;;;;;;5074076;28;20673;-77
2021/06/11 08:04:57;;;;;;;14.00;12.80;;;22.60;99.90;;;;;;5069853;28;20420;-77
2021/06/11 08:07:29;;;;;;;15.23;13.93;;;22.80;99.90;;;;;;5064692;28;20443;-77
2021/06/11 08:09:58;;;;;;;14.33;13.20;;;23.00;99.90;;;;;;5080148;28;20202;-77
2021/06/11 08:12:26;;;;;;;14.53;13.33;;;23.00;99.90;;;;;;5064676;28;20516;-77
2021/06/11 08:14:51;;;;;;;14.80;13.50;;;23.20;99.90;;;;;;5059960;28;20424;-77
2021/06/11 08:17:17;;;;;;;14.53;13.43;;;23.30;99.90;;;;;;5070714;28;21003;-76
2021/06/11 08:19:43;;;;;;;15.93;14.67;;;23.30;99.90;;;;;;5065239;28;20617;-77
2021/06/11 08:22:08;;;;;;;14.17;13.03;;;23.30;99.90;;;;;;5062914;28;20201;-78
2021/06/11 08:24:34;;;;;;;15.67;14.27;;;23.20;99.90;;;;;;5064880;28;20733;-77
2021/06/11 08:26:59;;;;;;;15.27;14.07;;;23.40;99.90;;;;;;5072494;28;20215;-77
2021/06/11 08:29:25;;;;;;;13.13;12.17;;;23.40;99.90;;;;;;5060219;28;20231;-78
2021/06/11 08:31:51;;;;;;;14.70;13.60;;;23.50;99.90;;;;;;5074131;28;20241;-77
2021/06/11 08:34:17;;;;;;;14.80;13.60;;;23.60;99.90;;;;;;5078504;28;20180;-78
2021/06/11 08:36:43;;;;;;;13.90;12.60;;;23.70;99.90;;;;;;5081399;28;20464;-77
2021/06/11 08:39:09;;;;;;;15.67;14.37;;;23.50;99.90;;;;;;5059041;28;20932;-77
2021/06/11 08:41:35;;;;;;;14.70;13.70;;;23.50;99.90;;;;;;5059188;28;20288;-76
2021/06/11 08:44:02;;;;;;;15.70;14.20;;;23.50;99.90;;;;;;5078138;28;20381;-77
2021/06/11 08:46:28;;;;;;;16.50;15.00;;;23.50;99.90;;;;;;5058115;28;20421;-77
2021/06/11 08:48:55;;;;;;;14.90;13.70;;;23.60;99.90;;;;;;5061900;28;20428;-78
2021/06/11 08:51:21;;;;;;;14.80;13.63;;;23.50;99.90;;;;;;5080708;28;20446;-76
2021/06/11 08:53:47;;;;;;;14.83;13.43;;;23.60;99.90;;;;;;5074153;28;20741;-76
2021/06/11 08:56:13;;;;;;;14.70;13.33;;;23.80;99.90;;;;;;5068105;28;20243;-76
2021/06/11 08:58:39;;;;;;;16.20;14.50;;;23.90;99.90;;;;;;5058654;28;20182;-75
2021/06/11 09:01:06;;;;;;;15.00;13.80;;;23.90;99.90;;;;;;5075568;28;20443;-77
2021/06/11 09:03:42;;;;;;;16.23;14.83;;;24.00;99.90;;;;;;5063803;28;20436;-76
2021/06/11 09:06:12;;;;;;;16.37;15.07;;;23.90;99.90;;;;;;5063387;28;20430;-77
2021/06/11 09:08:39;;;;;;;15.50;14.20;;;24.00;99.90;;;;;;5065291;28;20420;-76
2021/06/11 09:11:12;;;;;;;14.50;13.20;;;23.90;99.90;;;;;;5070601;28;20444;-77
2021/06/11 09:13:41;;;;;;;15.43;14.23;;;24.10;99.90;;;;;;5060095;28;20448;-76
2021/06/11 09:16:07;;;;;;;14.17;12.93;;;24.10;99.90;;;;;;5066763;28;20459;-78
2021/06/11 09:18:42;;;;;;;15.87;14.50;;;24.20;99.90;;;;;;5054246;28;20424;-76
2021/06/11 09:21:30;;;;;;;13.57;12.20;;;24.40;99.90;;;;;;5070220;28;20450;-78
2021/06/11 09:27:02;;;;;;;13.67;12.57;;;24.60;99.90;;;;;;5066030;28;20450;-77
2021/06/11 09:29:43;;;;;;;19.10;14.03;;;24.60;99.90;;;;;;5064553;28;20500;-78
2021/06/11 09:32:25;;;;;;;14.60;13.40;;;24.70;99.90;;;;;;5062165;28;20411;-78
2021/06/11 09:34:56;;;;;;;13.80;12.77;;;24.60;99.90;;;;;;5067057;28;20412;-75
2021/06/11 09:37:28;;;;;;;13.03;11.97;;;24.70;99.90;;;;;;5061470;28;20463;-77
2021/06/11 09:40:00;;;;;;;12.33;11.33;;;24.70;99.90;;;;;;5065679;28;20438;-78
2021/06/11 09:42:34;;;;;;;12.47;11.47;;;24.80;99.90;;;;;;5051958;28;20492;-77
2021/06/11 09:45:08;;;;;;;14.17;13.07;;;25.10;99.90;;;;;;5076420;28;20427;-77
2021/06/11 09:48:01;;;;;;;14.40;13.20;;;25.20;99.90;;;;;;5067850;28;20423;-77
2021/06/11 09:50:34;;;;;;;13.10;12.00;;;25.20;99.90;;;;;;5059926;28;20459;-77
2021/06/11 09:53:07;;;;;;;14.87;13.70;;;25.20;99.90;;;;;;5067466;28;20515;-76
2021/06/11 09:55:35;;;;;;;13.43;12.40;;;25.20;99.90;;;;;;5064266;28;20435;-77
2021/06/11 09:58:08;;;;;;;13.63;12.53;;;25.30;99.90;;;;;;5053948;28;20461;-76
2021/06/11 10:00:39;;;;;;;14.13;13.10;;;25.30;99.90;;;;;;5065275;28;20511;-77
2021/06/11 10:03:14;;;;;;;13.10;12.10;;;25.30;99.90;;;;;;5074762;28;20421;-75
2021/06/11 10:05:41;;;;;;;12.70;11.70;;;25.50;99.90;;;;;;5068317;28;20442;-79
2021/06/11 10:08:08;;;;;;;11.93;10.93;;;25.50;99.90;;;;;;5073314;28;20423;-76
2021/06/11 10:10:35;;;;;;;13.80;12.60;;;25.50;99.90;;;;;;5066341;28;20472;-76
2021/06/11 10:13:01;;;;;;;11.70;10.70;;;25.50;99.90;;;;;;5067844;28;20958;-78
2021/06/11 10:15:26;;;;;;;12.80;11.80;;;25.40;99.90;;;;;;5060229;28;20511;-78
2021/06/11 10:17:52;;;;;;;12.43;11.43;;;25.30;99.90;;;;;;5053181;28;20202;-78
2021/06/11 10:20:18;;;;;;;11.30;10.47;;;25.30;99.90;;;;;;5055856;28;20210;-76
2021/06/11 10:22:44;;;;;;;10.53;9.73;;;25.50;99.90;;;;;;5062324;28;20617;-77
2021/06/11 10:25:13;;;;;;;12.27;11.37;;;25.50;99.90;;;;;;5069163;28;20178;-77
2021/06/11 10:27:43;;;;;;;11.97;11.07;;;25.60;99.90;;;;;;5078952;28;20423;-75
2021/06/11 10:30:10;;;;;;;11.87;11.07;;;25.40;99.90;;;;;;5077527;28;20811;-77
2021/06/11 10:32:43;;;;;;;11.30;10.43;;;25.40;99.90;;;;;;5092738;28;20985;-75
2021/06/11 10:35:10;;;;;;;11.60;10.63;;;25.50;99.90;;;;;;5092791;28;20859;-77
2021/06/11 10:37:45;;;;;;;10.50;9.70;;;25.50;99.90;;;;;;5077837;28;21022;-78
2021/06/11 10:40:23;;;;;;;11.47;10.67;;;25.50;99.90;;;;;;5077904;28;20440;-78
2021/06/11 10:42:50;;;;;;;10.33;9.50;;;25.40;99.90;;;;;;5063311;28;20466;-78
2021/06/11 10:45:42;;;;;;;9.80;9.20;;;25.50;99.90;;;;;;5063134;28;20413;-78
2021/06/11 10:48:08;;;;;;;11.27;10.37;;;25.60;99.90;;;;;;5072520;28;20419;-76
2021/06/11 10:50:36;;;;;;;9.77;9.07;;;25.70;99.90;;;;;;5069684;28;20813;-76
2021/06/11 10:53:10;;;;;;;10.73;9.70;;;25.90;99.90;;;;;;5083620;28;20185;-76
2021/06/11 10:55:45;;;;;;;10.50;9.60;;;26.00;99.90;;;;;;5060733;28;20970;-77
2021/06/11 10:58:11;;;;;;;9.40;8.80;;;26.00;99.90;;;;;;5066351;28;20470;-76
2021/06/11 11:00:39;;;;;;;8.87;8.17;;;26.20;99.90;;;;;;5053324;28;20432;-76
2021/06/11 11:03:07;;;;;;;9.20;8.50;;;26.30;99.90;;;;;;5066116;28;20545;-77
2021/06/11 11:05:38;;;;;;;7.80;7.20;;;26.40;99.90;;;;;;5065648;28;20791;-75
2021/06/11 11:08:06;;;;;;;8.50;7.67;;;26.40;99.90;;;;;;5076336;28;20517;-77
2021/06/11 11:10:48;;;;;;;7.27;6.83;;;26.30;99.90;;;;;;5056328;28;20968;-76
2021/06/11 11:13:27;;;;;;;7.23;6.70;;;26.40;99.90;;;;;;5066774;28;20477;-76
2021/06/11 11:15:58;;;;;;;7.13;6.60;;;26.50;99.90;;;;;;5063583;28;20515;-77
2021/06/11 11:18:32;;;;;;;7.43;6.83;;;26.40;99.90;;;;;;5077653;28;20510;-76
2021/06/11 11:20:59;;;;;;;6.50;6.00;;;26.50;99.90;;;;;;5087577;28;20457;-76
2021/06/11 11:23:26;;;;;;;5.47;5.17;;;26.50;99.90;;;;;;5063911;28;20416;-77
2021/06/11 11:25:53;;;;;;;5.47;4.97;;;26.50;99.90;;;;;;5067589;28;20420;-77
2021/06/11 11:28:19;;;;;;;5.67;5.27;;;26.50;99.90;;;;;;5073702;28;20755;-79
2021/06/11 11:30:47;;;;;;;5.20;4.90;;;26.50;99.90;;;;;;5083073;28;20432;-76
2021/06/11 11:33:14;;;;;;;5.00;4.60;;;26.50;99.90;;;;;;5088027;28;20465;-76
2021/06/11 11:35:43;;;;;;;4.63;4.33;;;26.60;99.90;;;;;;5072297;28;20416;-77
2021/06/11 11:38:10;;;;;;;4.37;3.97;;;26.70;99.90;;;;;;5072225;28;20452;-78
2021/06/11 11:40:36;;;;;;;5.30;4.60;;;26.80;99.90;;;;;;5071996;28;20815;-76
2021/06/11 11:43:02;;;;;;;4.40;4.10;;;26.80;99.90;;;;;;5066049;28;20413;-79
2021/06/11 11:45:29;;;;;;;4.00;3.80;;;26.90;99.90;;;;;;5060495;28;20431;-77
2021/06/11 11:47:57;;;;;;;5.37;3.97;;;26.90;99.90;;;;;;5074072;28;20227;-76
2021/06/11 11:50:24;;;;;;;3.97;3.67;;;27.00;99.90;;;;;;5070682;28;20543;-78
2021/06/11 11:52:49;;;;;;;4.93;4.37;;;27.20;99.90;;;;;;5074469;28;20420;-77
2021/06/11 11:55:16;;;;;;;4.30;4.03;;;27.30;99.90;;;;;;5070876;28;20431;-77
2021/06/11 11:57:42;;;;;;;4.50;4.20;;;27.40;99.90;;;;;;5064031;28;20205;-76
2021/06/11 12:00:12;;;;;;;4.63;4.33;;;27.70;99.90;;;;;;5082634;28;20446;-77
2021/06/11 12:02:38;;;;;;;4.13;3.93;;;27.70;99.90;;;;;;5091008;28;20506;-77
2021/06/11 12:05:05;;;;;;;3.53;3.23;;;28.00;99.90;;;;;;5075501;28;20412;-76
2021/06/11 12:07:31;;;;;;;3.40;3.20;;;28.40;99.90;;;;;;5061954;28;20190;-75
2021/06/11 12:09:58;;;;;;;3.50;3.30;;;28.90;99.90;;;;;;5066676;28;20466;-77
2021/06/11 12:12:24;;;;;;;3.87;3.63;;;29.80;99.00;;;;;;5056775;28;20192;-77
2021/06/11 12:14:49;;;;;;;3.37;3.07;;;30.40;97.30;;;;;;5060795;28;21234;-78
2021/06/11 12:17:15;;;;;;;3.00;2.80;;;31.00;97.90;;;;;;5063180;28;20208;-77
2021/06/11 12:19:40;;;;;;;3.80;3.47;;;31.90;94.70;;;;;;5060157;28;20173;-77
2021/06/11 12:22:06;;;;;;;3.83;3.50;;;32.20;92.40;;;;;;5078519;28;20648;-77
2021/06/11 12:24:32;;;;;;;4.17;3.97;;;32.20;92.50;;;;;;5064805;28;20199;-78
2021/06/11 12:26:58;;;;;;;3.77;3.57;;;32.80;91.20;;;;;;5072286;28;20563;-77
2021/06/11 12:29:23;;;;;;;3.93;3.73;;;33.10;89.80;;;;;;5075248;28;20181;-77
2021/06/11 12:31:51;;;;;;;4.43;4.13;;;32.70;85.70;;;;;;5067559;28;20185;-78
2021/06/11 12:34:17;;;;;;;4.20;3.80;;;32.40;84.90;;;;;;5073295;28;20600;-78
2021/06/11 12:36:43;;;;;;;4.50;4.20;;;31.90;88.40;;;;;;5061641;28;20451;-76
2021/06/11 12:39:09;;;;;;;3.77;3.57;;;31.80;85.10;;;;;;5058541;28;20420;-78